sensor_id;sensor_type;location;lat;lon;timestamp;pressure;altitude;pressure_sealevel;temperature;humidity
71795;BME280;59641;45.188;5.712;2022-10-31T00:01:27;99802.97;;;17.85;61.21
71795;BME280;59641;45.188;5.712;2022-10-31T00:03:53;99809.50;;;17.89;61.48
71795;BME280;59641;45.188;5.712;2022-10-31T00:06:19;99808.44;;;17.90;61.77
71795;BME280;59641;45.188;5.712;2022-10-31T00:08:52;99804.91;;;17.90;61.54
71795;BME280;59641;45.188;5.712;2022-10-31T00:11:19;99796.47;;;17.91;61.50
71795;BME280;59641;45.188;5.712;2022-10-31T00:13:45;99805.19;;;17.93;62.08
71795;BME280;59641;45.188;5.712;2022-10-31T00:16:18;99807.38;;;17.96;61.44
71795;BME280;59641;45.188;5.712;2022-10-31T00:18:47;99808.22;;;17.97;61.68
71795;BME280;59641;45.188;5.712;2022-10-31T00:21:12;99804.66;;;17.96;61.68
71795;BME280;59641;45.188;5.712;2022-10-31T00:23:38;99799.81;;;17.98;61.66
71795;BME280;59641;45.188;5.712;2022-10-31T00:26:04;99803.34;;;17.99;61.46
71795;BME280;59641;45.188;5.712;2022-10-31T00:28:30;99803.84;;;17.96;61.85
71795;BME280;59641;45.188;5.712;2022-10-31T00:31:05;99800.09;;;17.97;61.33
71795;BME280;59641;45.188;5.712;2022-10-31T00:33:30;99796.28;;;17.98;61.30
71795;BME280;59641;45.188;5.712;2022-10-31T00:35:58;99801.16;;;17.96;61.80
71795;BME280;59641;45.188;5.712;2022-10-31T00:38:23;99794.09;;;17.95;61.81
71795;BME280;59641;45.188;5.712;2022-10-31T00:40:49;99783.19;;;17.90;61.75
71795;BME280;59641;45.188;5.712;2022-10-31T00:43:14;99794.59;;;17.92;61.64
71795;BME280;59641;45.188;5.712;2022-10-31T00:45:41;99797.63;;;17.95;61.96
71795;BME280;59641;45.188;5.712;2022-10-31T00:48:07;99786.50;;;17.97;62.03
71795;BME280;59641;45.188;5.712;2022-10-31T00:50:33;99784.59;;;17.97;61.32
71795;BME280;59641;45.188;5.712;2022-10-31T00:52:58;99781.31;;;17.95;61.48
71795;BME280;59641;45.188;5.712;2022-10-31T00:55:23;99785.09;;;17.94;61.40
71795;BME280;59641;45.188;5.712;2022-10-31T00:57:49;99794.66;;;17.97;61.63
71795;BME280;59641;45.188;5.712;2022-10-31T01:00:15;99790.03;;;17.97;61.67
71795;BME280;59641;45.188;5.712;2022-10-31T01:02:42;99792.75;;;17.97;61.57
71795;BME280;59641;45.188;5.712;2022-10-31T01:05:07;99786.19;;;17.93;61.24
71795;BME280;59641;45.188;5.712;2022-10-31T01:07:37;99791.63;;;17.93;61.73
71795;BME280;59641;45.188;5.712;2022-10-31T01:10:03;99794.34;;;17.93;61.17
71795;BME280;59641;45.188;5.712;2022-10-31T01:12:28;99792.44;;;17.94;61.34
71795;BME280;59641;45.188;5.712;2022-10-31T01:14:54;99788.66;;;17.95;61.72
71795;BME280;59641;45.188;5.712;2022-10-31T01:17:19;99788.66;;;17.95;61.19
71795;BME280;59641;45.188;5.712;2022-10-31T01:19:45;99787.81;;;17.94;61.36
71795;BME280;59641;45.188;5.712;2022-10-31T01:22:10;99786.19;;;17.93;61.46
71795;BME280;59641;45.188;5.712;2022-10-31T01:24:36;99791.34;;;17.90;61.35
71795;BME280;59641;45.188;5.712;2022-10-31T01:27:01;99782.06;;;17.85;61.36
71795;BME280;59641;45.188;5.712;2022-10-31T01:29:27;99782.81;;;17.81;61.88
71795;BME280;59641;45.188;5.712;2022-10-31T01:31:53;99777.31;;;17.76;61.90
71795;BME280;59641;45.188;5.712;2022-10-31T01:34:19;99781.09;;;17.75;61.49
71795;BME280;59641;45.188;5.712;2022-10-31T01:36:45;99778.94;;;17.77;61.72
71795;BME280;59641;45.188;5.712;2022-10-31T01:39:17;99777.59;;;17.79;61.42
71795;BME280;59641;45.188;5.712;2022-10-31T01:41:47;99763.22;;;17.79;61.76
71795;BME280;59641;45.188;5.712;2022-10-31T01:46:45;99775.97;;;17.78;61.80
71795;BME280;59641;45.188;5.712;2022-10-31T01:51:53;99767.84;;;17.78;61.51
71795;BME280;59641;45.188;5.712;2022-10-31T01:54:23;99772.47;;;17.78;61.48
71795;BME280;59641;45.188;5.712;2022-10-31T01:56:53;99771.63;;;17.77;61.95
71795;BME280;59641;45.188;5.712;2022-10-31T01:59:21;99759.94;;;17.77;61.46
71795;BME280;59641;45.188;5.712;2022-10-31T02:01:50;99763.19;;;17.74;61.50
71795;BME280;59641;45.188;5.712;2022-10-31T02:04:18;99762.63;;;17.72;61.87
71795;BME280;59641;45.188;5.712;2022-10-31T02:07:03;99758.78;;;17.67;61.64
71795;BME280;59641;45.188;5.712;2022-10-31T02:09:31;99748.69;;;17.63;61.77
71795;BME280;59641;45.188;5.712;2022-10-31T02:11:58;99758.47;;;17.64;61.94
71795;BME280;59641;45.188;5.712;2022-10-31T02:14:26;99749.19;;;17.60;62.05
71795;BME280;59641;45.188;5.712;2022-10-31T02:16:56;99752.44;;;17.57;61.96
71795;BME280;59641;45.188;5.712;2022-10-31T02:19:30;99748.34;;;17.54;62.08
71795;BME280;59641;45.188;5.712;2022-10-31T02:22:04;99747.53;;;17.54;61.74
71795;BME280;59641;45.188;5.712;2022-10-31T02:24:52;99747.53;;;17.54;61.94
71795;BME280;59641;45.188;5.712;2022-10-31T02:30:21;99737.50;;;17.54;62.25
71795;BME280;59641;45.188;5.712;2022-10-31T02:38:21;99743.78;;;17.60;61.84
71795;BME280;59641;45.188;5.712;2022-10-31T02:43:29;99731.59;;;17.62;62.07
71795;BME280;59641;45.188;5.712;2022-10-31T02:46:14;99731.59;;;17.62;62.03
71795;BME280;59641;45.188;5.712;2022-10-31T02:48:45;99730.53;;;17.63;61.72
71795;BME280;59641;45.188;5.712;2022-10-31T02:51:13;99728.88;;;17.62;61.95
71795;BME280;59641;45.188;5.712;2022-10-31T02:53:39;99731.88;;;17.61;61.93
71795;BME280;59641;45.188;5.712;2022-10-31T02:56:12;99732.41;;;17.63;62.14
71795;BME280;59641;45.188;5.712;2022-10-31T02:58:42;99727.81;;;17.63;62.20
71795;BME280;59641;45.188;5.712;2022-10-31T03:06:45;99725.88;;;17.59;61.85
71795;BME280;59641;45.188;5.712;2022-10-31T03:09:25;99726.69;;;17.59;61.89
71795;BME280;59641;45.188;5.712;2022-10-31T03:12:02;99723.97;;;17.59;62.09
71795;BME280;59641;45.188;5.712;2022-10-31T03:17:31;99728.31;;;17.60;62.10
71795;BME280;59641;45.188;5.712;2022-10-31T03:20:00;99726.69;;;17.59;62.12
71795;BME280;59641;45.188;5.712;2022-10-31T03:22:29;99733.72;;;17.60;61.74
71795;BME280;59641;45.188;5.712;2022-10-31T03:24:57;99735.06;;;17.58;61.90
71795;BME280;59641;45.188;5.712;2022-10-31T03:27:26;99738.06;;;17.56;62.00
71795;BME280;59641;45.188;5.712;2022-10-31T03:29:56;99742.09;;;17.54;61.94
71795;BME280;59641;45.188;5.712;2022-10-31T03:32:29;99732.03;;;17.49;61.86
71795;BME280;59641;45.188;5.712;2022-10-31T03:34:59;99734.41;;;17.45;61.95
71795;BME280;59641;45.188;5.712;2022-10-31T03:37:27;99746.91;;;17.46;61.96
71795;BME280;59641;45.188;5.712;2022-10-31T03:39:55;99745.03;;;17.47;61.98
71795;BME280;59641;45.188;5.712;2022-10-31T03:42:30;99742.31;;;17.47;61.86
71795;BME280;59641;45.188;5.712;2022-10-31T03:45:01;99735.78;;;17.48;61.83
71795;BME280;59641;45.188;5.712;2022-10-31T03:47:29;99738.78;;;17.46;62.15
71795;BME280;59641;45.188;5.712;2022-10-31T03:49:55;99736.06;;;17.46;62.10
71795;BME280;59641;45.188;5.712;2022-10-31T03:52:29;99736.06;;;17.46;61.93
71795;BME280;59641;45.188;5.712;2022-10-31T03:57:45;99732.28;;;17.48;62.26
71795;BME280;59641;45.188;5.712;2022-10-31T04:00:15;99735.78;;;17.48;62.36
71795;BME280;59641;45.188;5.712;2022-10-31T04:05:30;99733.94;;;17.49;62.41
71795;BME280;59641;45.188;5.712;2022-10-31T04:07:58;99736.13;;;17.52;61.92
71795;BME280;59641;45.188;5.712;2022-10-31T04:10:26;99719.03;;;17.51;62.37
71795;BME280;59641;45.188;5.712;2022-10-31T04:12:58;99728.22;;;17.50;62.05
71795;BME280;59641;45.188;5.712;2022-10-31T04:15:26;99724.69;;;17.50;61.90
71795;BME280;59641;45.188;5.712;2022-10-31T04:17:54;99724.31;;;17.41;62.17
71795;BME280;59641;45.188;5.712;2022-10-31T04:20:33;99719.19;;;17.39;62.29
71795;BME280;59641;45.188;5.712;2022-10-31T04:22:59;99715.56;;;17.34;62.41
71795;BME280;59641;45.188;5.712;2022-10-31T04:25:25;99719.06;;;17.29;62.64
71795;BME280;59641;45.188;5.712;2022-10-31T04:27:50;99717.44;;;17.28;62.21
71795;BME280;59641;45.188;5.712;2022-10-31T04:30:15;99719.31;;;17.28;62.42
71795;BME280;59641;45.188;5.712;2022-10-31T04:32:41;99710.88;;;17.24;62.18
71795;BME280;59641;45.188;5.712;2022-10-31T04:35:06;99705.44;;;17.24;62.40
71795;BME280;59641;45.188;5.712;2022-10-31T04:37:32;99708.16;;;17.24;62.63
71795;BME280;59641;45.188;5.712;2022-10-31T04:39:57;99704.38;;;17.25;62.92
71795;BME280;59641;45.188;5.712;2022-10-31T04:42:22;99713.91;;;17.28;62.83
71795;BME280;59641;45.188;5.712;2022-10-31T04:44:48;99710.91;;;17.29;62.50
71795;BME280;59641;45.188;5.712;2022-10-31T04:47:14;99716.34;;;17.29;62.36
71795;BME280;59641;45.188;5.712;2022-10-31T04:49:39;99716.09;;;17.31;62.65
71795;BME280;59641;45.188;5.712;2022-10-31T04:52:04;99715.84;;;17.32;62.53
71795;BME280;59641;45.188;5.712;2022-10-31T04:54:30;99724.22;;;17.31;62.30
71795;BME280;59641;45.188;5.712;2022-10-31T04:56:55;99726.69;;;17.32;62.54
71795;BME280;59641;45.188;5.712;2022-10-31T04:59:21;99722.31;;;17.31;62.34
71795;BME280;59641;45.188;5.712;2022-10-31T05:01:46;99714.75;;;17.33;62.48
71795;BME280;59641;45.188;5.712;2022-10-31T05:04:11;99716.41;;;17.34;62.89
71795;BME280;59641;45.188;5.712;2022-10-31T05:06:37;99715.56;;;17.34;62.39
71795;BME280;59641;45.188;5.712;2022-10-31T05:09:02;99709.34;;;17.33;62.62
71795;BME280;59641;45.188;5.712;2022-10-31T05:11:27;99710.16;;;17.34;62.73
71795;BME280;59641;45.188;5.712;2022-10-31T05:13:53;99708.19;;;17.29;62.43
71795;BME280;59641;45.188;5.712;2022-10-31T05:16:18;99719.00;;;17.24;62.65
71795;BME280;59641;45.188;5.712;2022-10-31T05:18:43;99714.91;;;17.21;62.80
71795;BME280;59641;45.188;5.712;2022-10-31T05:21:09;99723.31;;;17.20;62.90
71795;BME280;59641;45.188;5.712;2022-10-31T05:23:34;99724.13;;;17.20;62.67
71795;BME280;59641;45.188;5.712;2022-10-31T05:26:00;99731.19;;;17.21;62.99
71795;BME280;59641;45.188;5.712;2022-10-31T05:28:25;99717.91;;;17.20;62.75
71795;BME280;59641;45.188;5.712;2022-10-31T05:30:50;99721.66;;;17.19;62.74
71795;BME280;59641;45.188;5.712;2022-10-31T05:33:16;99718.13;;;17.18;62.36
71795;BME280;59641;45.188;5.712;2022-10-31T05:35:41;99726.50;;;17.17;62.93
71795;BME280;59641;45.188;5.712;2022-10-31T05:38:06;99742.53;;;17.18;62.47
71795;BME280;59641;45.188;5.712;2022-10-31T05:40:32;99740.91;;;17.17;62.45
71795;BME280;59641;45.188;5.712;2022-10-31T05:42:57;99731.69;;;17.18;62.60
71795;BME280;59641;45.188;5.712;2022-10-31T05:45:24;99734.09;;;17.15;62.42
71795;BME280;59641;45.188;5.712;2022-10-31T05:47:58;99739.50;;;17.15;62.05
71795;BME280;59641;45.188;5.712;2022-10-31T05:50:24;99728.13;;;17.13;62.27
71795;BME280;59641;45.188;5.712;2022-10-31T05:52:59;99724.03;;;17.10;62.45
71795;BME280;59641;45.188;5.712;2022-10-31T05:55:25;99716.38;;;17.07;62.34
71795;BME280;59641;45.188;5.712;2022-10-31T05:57:52;99717.19;;;17.08;62.51
71795;BME280;59641;45.188;5.712;2022-10-31T06:00:19;99731.03;;;17.06;62.18
71795;BME280;59641;45.188;5.712;2022-10-31T06:02:44;99734.78;;;17.05;62.54
71795;BME280;59641;45.188;5.712;2022-10-31T06:05:10;99735.88;;;17.04;62.47
71795;BME280;59641;45.188;5.712;2022-10-31T06:07:36;99737.19;;;17.01;62.38
71795;BME280;59641;45.188;5.712;2022-10-31T06:10:05;99735.47;;;16.95;62.32
71795;BME280;59641;45.188;5.712;2022-10-31T06:12:31;99740.03;;;16.90;62.50
71795;BME280;59641;45.188;5.712;2022-10-31T06:14:57;99745.41;;;16.85;62.63
71795;BME280;59641;45.188;5.712;2022-10-31T06:17:22;99730.69;;;16.80;62.57
71795;BME280;59641;45.188;5.712;2022-10-31T06:19:48;99737.69;;;16.76;62.55
71795;BME280;59641;45.188;5.712;2022-10-31T06:22:13;99738.97;;;16.74;63.13
71795;BME280;59641;45.188;5.712;2022-10-31T06:24:38;99738.69;;;16.70;63.04
71795;BME280;59641;45.188;5.712;2022-10-31T06:27:04;99747.03;;;16.69;63.28
71795;BME280;59641;45.188;5.712;2022-10-31T06:29:30;99743.75;;;16.67;63.18
71795;BME280;59641;45.188;5.712;2022-10-31T06:31:56;99753.22;;;16.64;63.22
71795;BME280;59641;45.188;5.712;2022-10-31T06:34:21;99759.72;;;16.63;63.06
71795;BME280;59641;45.188;5.712;2022-10-31T06:36:46;99748.06;;;16.63;63.40
71795;BME280;59641;45.188;5.712;2022-10-31T06:39:12;99752.91;;;16.60;63.28
71795;BME280;59641;45.188;5.712;2022-10-31T06:41:37;99747.72;;;16.59;64.23
71795;BME280;59641;45.188;5.712;2022-10-31T06:44:05;99743.31;;;16.53;64.19
71795;BME280;59641;45.188;5.712;2022-10-31T06:46:30;99739.78;;;16.52;64.07
71795;BME280;59641;45.188;5.712;2022-10-31T06:48:56;99740.28;;;16.49;64.13
71795;BME280;59641;45.188;5.712;2022-10-31T06:51:21;99736.19;;;16.47;64.15
71795;BME280;59641;45.188;5.712;2022-10-31T06:53:46;99743.81;;;16.50;64.07
71795;BME280;59641;45.188;5.712;2022-10-31T06:56:12;99741.59;;;16.47;63.81
71795;BME280;59641;45.188;5.712;2022-10-31T06:58:37;99740.78;;;16.46;64.31
71795;BME280;59641;45.188;5.712;2022-10-31T07:01:03;99737.00;;;16.47;63.31
71795;BME280;59641;45.188;5.712;2022-10-31T07:03:28;99742.69;;;16.46;63.83
71795;BME280;59641;45.188;5.712;2022-10-31T07:05:56;99731.03;;;16.45;63.61
71795;BME280;59641;45.188;5.712;2022-10-31T07:08:22;99732.91;;;16.45;63.78
71795;BME280;59641;45.188;5.712;2022-10-31T07:10:56;99726.38;;;16.40;63.80
71795;BME280;59641;45.188;5.712;2022-10-31T07:13:23;99723.06;;;16.38;63.90
71795;BME280;59641;45.188;5.712;2022-10-31T07:15:59;99717.09;;;16.36;63.82
71795;BME280;59641;45.188;5.712;2022-10-31T07:18:25;99721.69;;;16.36;63.54
71795;BME280;59641;45.188;5.712;2022-10-31T07:20:51;99719.72;;;16.31;63.61
71795;BME280;59641;45.188;5.712;2022-10-31T07:23:17;99713.72;;;16.29;63.62
71795;BME280;59641;45.188;5.712;2022-10-31T07:25:43;99709.63;;;16.27;64.24
71795;BME280;59641;45.188;5.712;2022-10-31T07:28:09;99717.50;;;16.28;64.19
71795;BME280;59641;45.188;5.712;2022-10-31T07:30:34;99724.06;;;16.32;64.01
71795;BME280;59641;45.188;5.712;2022-10-31T07:33:00;99720.03;;;16.35;64.36
71795;BME280;59641;45.188;5.712;2022-10-31T07:35:27;99716.28;;;16.36;63.96
71795;BME280;59641;45.188;5.712;2022-10-31T07:37:53;99711.66;;;16.36;64.29
71795;BME280;59641;45.188;5.712;2022-10-31T07:40:20;99713.28;;;16.37;64.69
71795;BME280;59641;45.188;5.712;2022-10-31T07:42:48;99721.19;;;16.39;64.26
71795;BME280;59641;45.188;5.712;2022-10-31T07:45:16;99725.28;;;16.42;64.86
71795;BME280;59641;45.188;5.712;2022-10-31T07:47:52;99721.81;;;16.46;64.56
71795;BME280;59641;45.188;5.712;2022-10-31T07:50:20;99722.97;;;16.50;64.69
71795;BME280;59641;45.188;5.712;2022-10-31T07:52:47;99716.22;;;16.53;64.56
71795;BME280;59641;45.188;5.712;2022-10-31T07:55:15;99717.03;;;16.53;64.33
71795;BME280;59641;45.188;5.712;2022-10-31T07:57:40;99719.00;;;16.58;64.36
71795;BME280;59641;45.188;5.712;2022-10-31T08:00:08;99716.59;;;16.61;64.18
71795;BME280;59641;45.188;5.712;2022-10-31T08:02:34;99710.59;;;16.59;64.61
71795;BME280;59641;45.188;5.712;2022-10-31T08:04:59;99706.03;;;16.60;64.15
71795;BME280;59641;45.188;5.712;2022-10-31T08:07:27;99706.91;;;16.66;64.38
71795;BME280;59641;45.188;5.712;2022-10-31T08:09:52;99711.34;;;16.72;64.34
71795;BME280;59641;45.188;5.712;2022-10-31T08:12:18;99710.31;;;16.78;64.32
71795;BME280;59641;45.188;5.712;2022-10-31T08:14:44;99715.59;;;16.85;63.96
71795;BME280;59641;45.188;5.712;2022-10-31T08:17:10;99714.81;;;16.89;63.87
71795;BME280;59641;45.188;5.712;2022-10-31T08:19:35;99707.31;;;16.96;64.17
71795;BME280;59641;45.188;5.712;2022-10-31T08:22:02;99708.75;;;17.04;63.72
71795;BME280;59641;45.188;5.712;2022-10-31T08:24:27;99709.63;;;17.10;63.48
71795;BME280;59641;45.188;5.712;2022-10-31T08:26:52;99699.34;;;17.12;63.42
71795;BME280;59641;45.188;5.712;2022-10-31T08:29:18;99702.38;;;17.15;63.68
71795;BME280;59641;45.188;5.712;2022-10-31T08:31:43;99693.72;;;17.18;63.68
71795;BME280;59641;45.188;5.712;2022-10-31T08:34:09;99685.06;;;17.21;63.66
71795;BME280;59641;45.188;5.712;2022-10-31T08:36:34;99683.50;;;17.25;63.46
71795;BME280;59641;45.188;5.712;2022-10-31T08:39:01;99686.00;;;17.32;63.84
71795;BME280;59641;45.188;5.712;2022-10-31T08:41:26;99696.91;;;17.37;63.22
71795;BME280;59641;45.188;5.712;2022-10-31T08:43:52;99689.63;;;17.43;62.96
71795;BME280;59641;45.188;5.712;2022-10-31T08:46:17;99684.53;;;17.46;63.14
71795;BME280;59641;45.188;5.712;2022-10-31T08:48:43;99680.75;;;17.53;63.03
71795;BME280;59641;45.188;5.712;2022-10-31T08:51:09;99681.66;;;17.58;62.84
71795;BME280;59641;45.188;5.712;2022-10-31T08:53:35;99679.78;;;17.64;63.09
71795;BME280;59641;45.188;5.712;2022-10-31T08:56:00;99679.25;;;17.67;62.54
71795;BME280;59641;45.188;5.712;2022-10-31T08:58:26;99689.31;;;17.66;62.53
71795;BME280;59641;45.188;5.712;2022-10-31T09:00:52;99686.34;;;17.68;62.84
71795;BME280;59641;45.188;5.712;2022-10-31T09:03:21;99691.00;;;17.73;62.54
71795;BME280;59641;45.188;5.712;2022-10-31T09:05:47;99674.19;;;17.76;62.77
71795;BME280;59641;45.188;5.712;2022-10-31T09:08:13;99676.16;;;17.80;62.57
71795;BME280;59641;45.188;5.712;2022-10-31T09:10:39;99670.22;;;17.88;62.21
71795;BME280;59641;45.188;5.712;2022-10-31T09:13:16;99668.91;;;17.96;62.31
71795;BME280;59641;45.188;5.712;2022-10-31T09:15:43;99659.75;;;18.02;62.05
71795;BME280;59641;45.188;5.712;2022-10-31T09:18:11;99666.56;;;18.10;61.76
71795;BME280;59641;45.188;5.712;2022-10-31T09:20:38;99666.59;;;18.15;61.65
71795;BME280;59641;45.188;5.712;2022-10-31T09:23:08;99653.88;;;18.21;62.02
71795;BME280;59641;45.188;5.712;2022-10-31T09:25:35;99659.63;;;18.29;61.29
71795;BME280;59641;45.188;5.712;2022-10-31T09:28:02;99670.50;;;18.35;61.33
71795;BME280;59641;45.188;5.712;2022-10-31T09:30:29;99666.44;;;18.37;60.79
71795;BME280;59641;45.188;5.712;2022-10-31T09:32:59;99670.03;;;18.43;60.70
71795;BME280;59641;45.188;5.712;2022-10-31T09:35:25;99671.13;;;18.47;60.71
71795;BME280;59641;45.188;5.712;2022-10-31T09:37:58;99663.28;;;18.50;60.78
71795;BME280;59641;45.188;5.712;2022-10-31T09:40:29;99663.81;;;18.52;60.50
71795;BME280;59641;45.188;5.712;2022-10-31T09:46:15;99659.53;;;18.67;60.77
71795;BME280;59641;45.188;5.712;2022-10-31T09:49:12;99654.13;;;18.72;60.19
71795;BME280;59641;45.188;5.712;2022-10-31T09:51:49;99656.63;;;18.79;60.56
71795;BME280;59641;45.188;5.712;2022-10-31T09:54:38;99653.91;;;18.84;59.98
71795;BME280;59641;45.188;5.712;2022-10-31T09:57:10;99645.78;;;18.89;60.05
71795;BME280;59641;45.188;5.712;2022-10-31T09:59:39;99652.03;;;18.94;60.29
71795;BME280;59641;45.188;5.712;2022-10-31T10:02:16;99652.31;;;18.98;59.89
71795;BME280;59641;45.188;5.712;2022-10-31T10:04:56;99637.63;;;19.04;59.91
71795;BME280;59641;45.188;5.712;2022-10-31T10:07:41;99646.59;;;19.05;59.35
71795;BME280;59641;45.188;5.712;2022-10-31T10:22:02;99633.59;;;19.48;59.02
71795;BME280;59641;45.188;5.712;2022-10-31T10:30:20;99631.16;;;19.67;57.87
71795;BME280;59641;45.188;5.712;2022-10-31T10:32:56;99620.03;;;19.68;58.39
71795;BME280;59641;45.188;5.712;2022-10-31T10:35:43;99615.13;;;19.75;58.18
71795;BME280;59641;45.188;5.712;2022-10-31T10:40:39;99620.53;;;19.91;57.66
71795;BME280;59641;45.188;5.712;2022-10-31T10:51:29;99619.06;;;20.29;55.57
71795;BME280;59641;45.188;5.712;2022-10-31T10:57:29;99614.94;;;20.37;55.58
71795;BME280;59641;45.188;5.712;2022-10-31T11:02:47;99613.84;;;20.43;53.89
71795;BME280;59641;45.188;5.712;2022-10-31T11:07:59;99599.34;;;20.53;54.93
71795;BME280;59641;45.188;5.712;2022-10-31T11:10:25;99600.16;;;20.53;53.87
71795;BME280;59641;45.188;5.712;2022-10-31T11:13:21;99596.09;;;20.56;54.44
71795;BME280;59641;45.188;5.712;2022-10-31T11:18:29;99585.16;;;20.61;54.36
71795;BME280;59641;45.188;5.712;2022-10-31T11:20:59;99588.97;;;20.65;53.96
71795;BME280;59641;45.188;5.712;2022-10-31T11:23:27;99572.88;;;20.69;53.75
71795;BME280;59641;45.188;5.712;2022-10-31T11:28:19;99566.53;;;20.78;53.80
71795;BME280;59641;45.188;5.712;2022-10-31T11:30:47;99560.75;;;20.85;53.74
71795;BME280;59641;45.188;5.712;2022-10-31T11:33:19;99542.19;;;20.87;52.95
71795;BME280;59641;45.188;5.712;2022-10-31T11:35:47;99546.00;;;20.91;54.16
71795;BME280;59641;45.188;5.712;2022-10-31T11:38:18;99536.44;;;20.94;53.71
71795;BME280;59641;45.188;5.712;2022-10-31T11:40:56;99542.41;;;20.96;53.89
71795;BME280;59641;45.188;5.712;2022-10-31T11:43:24;99537.72;;;21.01;53.05
71795;BME280;59641;45.188;5.712;2022-10-31T11:45:52;99535.00;;;21.01;53.20
71795;BME280;59641;45.188;5.712;2022-10-31T11:48:33;99513.97;;;21.02;53.20
71795;BME280;59641;45.188;5.712;2022-10-31T11:50:58;99503.06;;;21.07;53.21
71795;BME280;59641;45.188;5.712;2022-10-31T11:53:29;99509.00;;;21.09;53.19
71795;BME280;59641;45.188;5.712;2022-10-31T11:56:10;99505.75;;;21.12;53.47
71795;BME280;59641;45.188;5.712;2022-10-31T11:58:36;99506.28;;;21.14;53.30
71795;BME280;59641;45.188;5.712;2022-10-31T12:01:01;99486.88;;;21.16;53.62
71795;BME280;59641;45.188;5.712;2022-10-31T12:06:15;99478.06;;;21.24;53.47
71795;BME280;59641;45.188;5.712;2022-10-31T12:08:43;99467.38;;;21.27;53.10
71795;BME280;59641;45.188;5.712;2022-10-31T12:16:50;99456.41;;;21.33;53.66
71795;BME280;59641;45.188;5.712;2022-10-31T12:22:12;99457.22;;;21.33;53.57
71795;BME280;59641;45.188;5.712;2022-10-31T12:25:33;99456.13;;;21.34;53.83
71795;BME280;59641;45.188;5.712;2022-10-31T12:33:50;99428.53;;;21.41;53.69
71795;BME280;59641;45.188;5.712;2022-10-31T12:39:07;99416.44;;;21.47;53.44
71795;BME280;59641;45.188;5.712;2022-10-31T12:47:24;99398.53;;;21.60;52.99
71795;BME280;59641;45.188;5.712;2022-10-31T12:52:54;99392.44;;;21.68;53.63
71795;BME280;59641;45.188;5.712;2022-10-31T13:03:45;99378.56;;;21.83;53.29
71795;BME280;59641;45.188;5.712;2022-10-31T13:06:16;99391.06;;;21.89;53.09
71795;BME280;59641;45.188;5.712;2022-10-31T13:08:47;99370.75;;;21.96;53.59
71795;BME280;59641;45.188;5.712;2022-10-31T13:11:18;99371.50;;;22.01;53.14
71795;BME280;59641;45.188;5.712;2022-10-31T13:14:09;99374.44;;;22.05;53.06
71795;BME280;59641;45.188;5.712;2022-10-31T13:16:45;99366.47;;;22.08;53.04
71795;BME280;59641;45.188;5.712;2022-10-31T13:19:22;99367.81;;;22.11;53.13
71795;BME280;59641;45.188;5.712;2022-10-31T13:24:22;99354.00;;;22.21;52.45
71795;BME280;59641;45.188;5.712;2022-10-31T13:26:52;99365.97;;;22.25;52.27
71795;BME280;59641;45.188;5.712;2022-10-31T13:29:29;99340.50;;;22.30;52.09
71795;BME280;59641;45.188;5.712;2022-10-31T13:31:56;99352.44;;;22.34;52.41
71795;BME280;59641;45.188;5.712;2022-10-31T13:34:42;99358.13;;;22.38;51.98
71795;BME280;59641;45.188;5.712;2022-10-31T13:37:33;99337.31;;;22.42;51.20
71795;BME280;59641;45.188;5.712;2022-10-31T13:43:21;99352.78;;;22.46;51.46
71795;BME280;59641;45.188;5.712;2022-10-31T13:45:26;99359.28;;;22.50;51.63
71795;BME280;59641;45.188;5.712;2022-10-31T13:50:40;99352.53;;;22.62;51.82
71795;BME280;59641;45.188;5.712;2022-10-31T13:53:13;99339.38;;;22.64;51.78
71795;BME280;59641;45.188;5.712;2022-10-31T13:55:40;99343.94;;;22.68;51.73
71795;BME280;59641;45.188;5.712;2022-10-31T13:58:27;99337.34;;;22.69;51.97
71795;BME280;59641;45.188;5.712;2022-10-31T14:01:05;99337.59;;;22.73;51.58
71795;BME280;59641;45.188;5.712;2022-10-31T14:03:38;99336.75;;;22.72;51.46
71795;BME280;59641;45.188;5.712;2022-10-31T14:06:06;99325.53;;;22.74;51.31
71795;BME280;59641;45.188;5.712;2022-10-31T14:08:34;99338.59;;;22.77;51.55
71795;BME280;59641;45.188;5.712;2022-10-31T14:11:01;99341.84;;;22.79;51.26
71795;BME280;59641;45.188;5.712;2022-10-31T14:13:29;99345.59;;;22.83;51.43
71795;BME280;59641;45.188;5.712;2022-10-31T14:16:00;99333.25;;;22.86;51.74
71795;BME280;59641;45.188;5.712;2022-10-31T14:18:35;99357.25;;;22.89;51.61
71795;BME280;59641;45.188;5.712;2022-10-31T14:21:15;99347.09;;;22.89;51.88
71795;BME280;59641;45.188;5.712;2022-10-31T14:23:40;99341.06;;;22.92;51.29
71795;BME280;59641;45.188;5.712;2022-10-31T14:28:41;99346.00;;;22.90;50.86
71795;BME280;59641;45.188;5.712;2022-10-31T14:31:39;99352.00;;;22.92;51.70
71795;BME280;59641;45.188;5.712;2022-10-31T14:47:56;99337.00;;;22.90;51.02
71795;BME280;59641;45.188;5.712;2022-10-31T14:50:48;99325.53;;;22.88;51.37
71795;BME280;59641;45.188;5.712;2022-10-31T14:53:26;99325.03;;;22.86;51.38
71795;BME280;59641;45.188;5.712;2022-10-31T14:55:54;99340.41;;;22.82;50.86
71795;BME280;59641;45.188;5.712;2022-10-31T15:01:01;99321.59;;;22.80;51.64
71795;BME280;59641;45.188;5.712;2022-10-31T15:03:33;99330.88;;;22.79;51.58
71795;BME280;59641;45.188;5.712;2022-10-31T15:06:05;99313.16;;;22.76;50.85
71795;BME280;59641;45.188;5.712;2022-10-31T15:08:39;99329.06;;;22.74;50.30
71795;BME280;59641;45.188;5.712;2022-10-31T15:11:13;99307.78;;;22.71;51.24
71795;BME280;59641;45.188;5.712;2022-10-31T15:13:56;99322.88;;;22.69;51.09
71795;BME280;59641;45.188;5.712;2022-10-31T15:16:33;99318.81;;;22.66;51.21
71795;BME280;59641;45.188;5.712;2022-10-31T15:19:03;99321.03;;;22.64;51.34
71795;BME280;59641;45.188;5.712;2022-10-31T15:21:29;99329.84;;;22.61;51.02
71795;BME280;59641;45.188;5.712;2022-10-31T15:24:00;99313.75;;;22.60;51.52
71795;BME280;59641;45.188;5.712;2022-10-31T15:26:34;99334.28;;;22.57;51.10
71795;BME280;59641;45.188;5.712;2022-10-31T15:29:05;99303.50;;;22.51;51.19
71795;BME280;59641;45.188;5.712;2022-10-31T15:31:31;99306.00;;;22.48;50.89